METAR AND TAF INFORMATION

METAR FOR SPZO
ADDS - METARS form results

(1759 UTC 16 May 2021)
Data provider http://aviationweather.gov/metar/data/
 
METAR text: SPZO 161730Z VRB05KT 9999 FEW050 20/M00 Q1031 NOSIG RMK BIRD HAZARD RWY 28
Conditions at: SPZO (CUZCO/VELAZCO AS, PE) observed 1730 UTC 16 May 2021
Temperature: 20.0°C (68°F)
Dewpoint: 0.0°C (32°F) [RH = 26%]
Pressure (altimeter): 30.44 inches Hg (1031.0 mb)
Winds: variable direction winds at 6 MPH (5 knots; 2.6 m/s)
Visibility: 6 or more miles (10+ km)
Ceiling: at least 12,000 feet AGL
Clouds: few clouds at 5000 feet AGL
Weather: no significant weather observed at this time

METAR text: SPZO 161700Z VRB02KT 9999 FEW046 19/00 Q1032 NOSIG RMK BIRD HAZARD RWY 28 PP000
Conditions at: SPZO (CUZCO/VELAZCO AS, PE) observed 1700 UTC 16 May 2021
Temperature: 19.0°C (66°F)
Dewpoint: 0.0°C (32°F) [RH = 28%]
Pressure (altimeter): 30.47 inches Hg (1032.0 mb)
Winds: variable direction winds at 2 MPH (2 knots; 1.0 m/s)
Visibility: 6 or more miles (10+ km)
Ceiling: at least 12,000 feet AGL
Clouds: few clouds at 4600 feet AGL
Weather: no significant weather observed at this time

Forecast for: SPZO (CUZCO/VELAZCO AS, PE)
Text: TAF SPZO 161710Z 1618/1718 09005KT 9999 SCT050 TX22/1619Z TN02/1711Z
Forecast period: 1800 UTC 16 May 2021 to 1800 UTC 17 May 2021
Forecast type: FROM: standard forecast or significant change
Winds: from the E (90 degrees) at 6 MPH (5 knots; 2.6 m/s)
Visibility: 6 or more miles (10+ km)
Ceiling: at least 12,000 feet AGL
Clouds: scattered clouds at 5000 feet AGL
Weather: no significant weather forecast for this period
Text: TEMPO 1620/1622 36010KT
Forecast period: 2000 to 2200 UTC 16 May 2021
Forecast type: TEMPORARY: The following changes expected for less than half the time period
Winds: from the N (360 degrees) at 12 MPH (10 knots; 5.1 m/s)
Visibility: missing
Ceiling: unknown
Clouds: missing
Weather: no significant weather forecast for this period

 

AIRPORT MAP

 

RUNWAY INFORMATION

Runway 10 Runway length 11146 ft Runway width 148 ft
Runway elevation 10860 ft Runway displaced threshold 0 ft Runway heading 96
Runway 28 Runway length 11146 ft Runway width 148 ft
Runway elevation 10702 ft Runway displaced threshold 0 ft Runway heading 276

 

AIRPORT FREQUENCIES

Type APP Name CUSCO APP Frequency 120.6 MHZ
Type ATIS Name ATIS Frequency 127 MHZ
Type GND Name GND Frequency 121.9 MHZ
Type TWR Name CUSCO TWR Frequency 118.1 MHZ

 

AIRPORT NEAR NAVIGATION AIDS

Type VOR-DME Name Urcos Frequency 115600 KHZ
Type VOR-DME Name Cusco Frequency 114900 KHZ